Time;durP1;ratioP1;P1;durP2;ratioP2;P2;SDS_P1;SDS_P2;PMS_P1;PMS_P2;Temp;Humidity;BMP_temperature;BMP_pressure;BME280_temperature;BME280_humidity;BME280_pressure;Samples;Min_cycle;Max_cycle;Signal;HPM_P1;HPM_P2
2022/03/12 00:00:13;;;;;;;13.60;6.77;;;1.60;55.60;;;;;;5070340;28;20227;-83
2022/03/12 00:02:40;;;;;;;10.77;7.03;;;1.50;55.70;;;;;;5067790;28;20247;-83
2022/03/12 00:05:09;;;;;;;12.23;7.33;;;1.50;55.70;;;;;;5072012;28;20231;-83
2022/03/12 00:07:37;;;;;;;11.87;6.50;;;1.50;55.60;;;;;;5069949;28;20239;-83
2022/03/12 00:10:05;;;;;;;10.90;6.40;;;1.50;55.70;;;;;;5070277;28;20596;-83
2022/03/12 00:12:34;;;;;;;10.13;6.13;;;1.50;55.70;;;;;;5072452;28;20246;-82
2022/03/12 00:15:09;;;;;;;9.50;6.77;;;1.40;55.70;;;;;;5071876;28;20252;-82
2022/03/12 00:17:36;;;;;;;11.67;6.33;;;1.40;55.70;;;;;;5070963;28;20223;-82
2022/03/12 00:20:04;;;;;;;10.97;6.97;;;1.40;55.60;;;;;;5069463;28;20671;-83
2022/03/12 00:22:31;;;;;;;10.07;6.50;;;1.40;55.90;;;;;;5059262;28;20237;-83
2022/03/12 00:24:57;;;;;;;11.30;6.90;;;1.40;55.80;;;;;;5062114;28;20227;-83
2022/03/12 00:27:24;;;;;;;12.30;6.60;;;1.30;55.70;;;;;;5068523;28;20250;-83
2022/03/12 00:29:52;;;;;;;12.03;7.20;;;1.30;55.60;;;;;;5077687;28;20236;-84
2022/03/12 00:32:20;;;;;;;11.97;6.37;;;1.30;55.50;;;;;;5068289;28;20246;-84
2022/03/12 00:34:46;;;;;;;11.27;6.60;;;1.30;55.60;;;;;;5058089;28;20239;-80
2022/03/12 00:37:13;;;;;;;10.47;6.70;;;1.30;55.60;;;;;;5071780;28;20232;-81
2022/03/12 00:39:44;;;;;;;10.13;6.73;;;1.30;55.60;;;;;;5069434;28;20230;-80
2022/03/12 00:42:13;;;;;;;10.67;6.33;;;1.30;55.50;;;;;;5068087;28;20232;-84
2022/03/12 00:44:40;;;;;;;11.20;6.33;;;1.30;55.40;;;;;;5068223;28;20258;-82
2022/03/12 00:47:07;;;;;;;10.00;6.57;;;1.30;55.50;;;;;;5064729;28;20233;-82
2022/03/12 00:49:35;;;;;;;11.43;6.50;;;1.20;55.60;;;;;;5070589;28;20231;-83
2022/03/12 00:52:01;;;;;;;12.80;6.90;;;1.20;55.60;;;;;;5065758;28;20222;-83
2022/03/12 00:54:28;;;;;;;10.77;6.50;;;1.20;55.60;;;;;;5068821;28;20234;-83
2022/03/12 00:56:54;;;;;;;10.67;6.37;;;1.20;55.50;;;;;;5066496;28;20228;-83
2022/03/12 00:59:21;;;;;;;10.10;6.00;;;1.20;55.50;;;;;;5068308;28;20238;-82
2022/03/12 01:01:48;;;;;;;10.80;6.50;;;1.10;55.40;;;;;;5068006;28;20310;-82
2022/03/12 01:04:15;;;;;;;10.70;6.13;;;1.10;55.50;;;;;;5063569;28;20729;-82
2022/03/12 01:06:43;;;;;;;12.27;6.47;;;1.10;55.40;;;;;;5077168;28;20250;-83
2022/03/12 01:09:11;;;;;;;13.13;6.90;;;1.10;55.60;;;;;;5069509;28;20267;-83
2022/03/12 01:11:38;;;;;;;11.33;6.50;;;1.10;55.70;;;;;;5063596;28;20227;-83
2022/03/12 01:14:07;;;;;;;11.27;6.40;;;1.10;55.80;;;;;;5068869;28;20227;-83
2022/03/12 01:16:34;;;;;;;10.57;6.50;;;1.00;55.80;;;;;;5069236;28;20286;-83
2022/03/12 01:19:00;;;;;;;13.17;7.20;;;1.00;55.90;;;;;;5071062;28;20321;-83
2022/03/12 01:21:29;;;;;;;12.80;7.33;;;1.00;56.10;;;;;;5066523;28;20305;-82
2022/03/12 01:23:57;;;;;;;10.40;6.23;;;0.90;56.40;;;;;;5069821;28;20251;-82
2022/03/12 01:26:24;;;;;;;11.30;6.43;;;0.90;56.30;;;;;;5065728;28;20237;-82
2022/03/12 01:28:51;;;;;;;11.07;6.70;;;0.90;56.50;;;;;;5061030;28;20244;-82
2022/03/12 01:31:18;;;;;;;9.73;6.70;;;0.80;56.50;;;;;;5067590;28;20222;-82
2022/03/12 01:33:45;;;;;;;11.70;6.63;;;0.80;56.60;;;;;;5073337;28;20254;-82
2022/03/12 01:36:13;;;;;;;10.73;6.63;;;0.80;56.20;;;;;;5064419;28;20234;-82
2022/03/12 01:38:47;;;;;;;12.80;6.97;;;0.70;56.30;;;;;;5064222;28;20230;-82
2022/03/12 01:41:20;;;;;;;11.27;6.60;;;0.70;56.40;;;;;;5063920;28;20284;-82
2022/03/12 01:43:47;;;;;;;10.83;6.40;;;0.70;56.60;;;;;;5074757;28;20237;-83
2022/03/12 01:46:14;;;;;;;10.50;6.23;;;0.60;56.40;;;;;;5067169;28;20343;-84
2022/03/12 01:48:47;;;;;;;12.37;6.63;;;0.60;56.50;;;;;;5067875;28;20319;-83
2022/03/12 01:51:13;;;;;;;10.20;6.00;;;0.60;56.60;;;;;;5069735;28;20234;-83
2022/03/12 01:53:40;;;;;;;11.97;6.20;;;0.60;56.60;;;;;;5064537;28;20574;-83
2022/03/12 01:56:07;;;;;;;12.07;6.80;;;0.60;56.60;;;;;;5066754;28;20223;-83
2022/03/12 01:58:35;;;;;;;10.60;6.73;;;0.60;56.70;;;;;;5096262;28;20229;-82
2022/03/12 02:01:03;;;;;;;14.17;6.67;;;0.60;56.80;;;;;;5063118;28;20220;-83
2022/03/12 02:03:33;;;;;;;11.03;6.23;;;0.50;56.80;;;;;;5058990;28;20243;-83
2022/03/12 02:06:00;;;;;;;10.97;6.87;;;0.50;56.90;;;;;;5068957;28;20308;-83
2022/03/12 02:08:29;;;;;;;10.47;6.50;;;0.40;56.80;;;;;;5064311;28;20701;-83
2022/03/12 02:10:57;;;;;;;10.70;6.33;;;0.40;56.80;;;;;;5066109;28;20226;-82
2022/03/12 02:13:24;;;;;;;10.37;6.43;;;0.40;56.90;;;;;;5066233;28;20232;-81
2022/03/12 02:15:59;;;;;;;11.60;6.80;;;0.40;56.90;;;;;;5067814;28;20294;-81
2022/03/12 02:18:26;;;;;;;13.10;7.23;;;0.30;57.30;;;;;;5065183;28;20228;-83
2022/03/12 02:20:53;;;;;;;12.50;6.40;;;0.20;57.30;;;;;;5068803;28;20595;-82
2022/03/12 02:23:19;;;;;;;11.90;7.03;;;0.20;57.20;;;;;;5066047;28;20583;-81
2022/03/12 02:25:48;;;;;;;10.83;7.07;;;0.20;57.30;;;;;;5065916;28;20236;-81
2022/03/12 02:28:17;;;;;;;10.83;6.50;;;0.20;57.40;;;;;;5066002;28;20226;-81
2022/03/12 02:30:51;;;;;;;12.37;6.83;;;0.20;57.50;;;;;;5062129;28;20225;-82
2022/03/12 02:33:28;;;;;;;11.40;7.10;;;0.10;57.60;;;;;;5065760;28;20301;-83
2022/03/12 02:35:56;;;;;;;11.90;6.73;;;0.10;57.80;;;;;;5067635;28;20227;-82
2022/03/12 02:38:24;;;;;;;9.73;6.43;;;0.10;57.60;;;;;;5071566;28;20234;-83
2022/03/12 02:40:53;;;;;;;10.33;6.83;;;0.00;57.50;;;;;;5067669;28;20244;-82
2022/03/12 02:43:26;;;;;;;10.17;6.80;;;0.00;57.50;;;;;;5072217;28;20240;-82
2022/03/12 02:45:53;;;;;;;14.40;6.47;;;0.00;57.60;;;;;;5069125;28;20227;-82
2022/03/12 02:48:20;;;;;;;11.20;6.33;;;0.00;57.50;;;;;;5074787;28;20226;-82
2022/03/12 02:50:48;;;;;;;9.77;6.20;;;0.00;57.60;;;;;;5070949;28;20245;-83
2022/03/12 02:53:17;;;;;;;11.33;6.50;;;0.00;57.60;;;;;;5071696;28;20219;-84
2022/03/12 02:55:45;;;;;;;11.40;6.80;;;0.00;57.70;;;;;;5073575;28;20231;-83
2022/03/12 02:58:14;;;;;;;11.73;6.47;;;-0.10;57.60;;;;;;5072317;28;20216;-82
2022/03/12 03:00:40;;;;;;;12.27;5.77;;;-0.10;57.60;;;;;;5073605;28;20748;-83
2022/03/12 03:03:07;;;;;;;10.17;5.93;;;-0.10;57.60;;;;;;5061448;28;20238;-81
2022/03/12 03:05:45;;;;;;;14.33;6.77;;;-0.10;57.60;;;;;;5067371;28;20659;-83
2022/03/12 03:08:13;;;;;;;12.53;6.57;;;-0.20;57.60;;;;;;5071717;28;20239;-82
2022/03/12 03:10:41;;;;;;;12.67;6.43;;;-0.20;57.60;;;;;;5072830;28;20236;-82
2022/03/12 03:13:37;;;;;;;12.80;7.33;;;-0.20;58.00;;;;;;5072203;28;20224;-82
2022/03/12 03:16:06;;;;;;;9.57;5.93;;;-0.30;58.00;;;;;;5074575;28;20251;-80
2022/03/12 03:18:38;;;;;;;11.57;6.70;;;-0.30;57.80;;;;;;5066846;28;20222;-80
2022/03/12 03:21:08;;;;;;;10.50;6.33;;;-0.30;58.60;;;;;;5066722;28;20233;-82
2022/03/12 03:23:35;;;;;;;10.47;6.17;;;-0.30;57.70;;;;;;5067261;28;20239;-84
2022/03/12 03:26:03;;;;;;;10.17;6.30;;;-0.30;57.80;;;;;;5069768;28;20599;-82
2022/03/12 03:28:31;;;;;;;11.07;6.70;;;-0.30;57.60;;;;;;5068957;28;20243;-83
2022/03/12 03:30:58;;;;;;;10.17;6.10;;;-0.40;57.90;;;;;;5085587;28;20247;-83
2022/03/12 03:33:27;;;;;;;11.17;6.37;;;-0.40;58.00;;;;;;5072978;28;20742;-84
2022/03/12 03:35:54;;;;;;;10.70;6.33;;;-0.40;57.90;;;;;;5070217;28;20238;-84
2022/03/12 03:38:21;;;;;;;10.33;6.40;;;-0.40;57.90;;;;;;5069162;28;20251;-84
2022/03/12 03:40:48;;;;;;;10.50;6.10;;;-0.40;58.00;;;;;;5064873;28;20827;-82
2022/03/12 03:43:16;;;;;;;12.10;6.97;;;-0.40;58.10;;;;;;5074172;28;20254;-83
2022/03/12 03:45:47;;;;;;;9.90;6.17;;;-0.50;58.30;;;;;;5066958;28;20230;-83
2022/03/12 03:48:16;;;;;;;10.53;6.57;;;-0.50;58.00;;;;;;5089652;28;20760;-83
2022/03/12 03:50:44;;;;;;;10.97;6.27;;;-0.50;58.30;;;;;;5075933;28;20242;-83
2022/03/12 03:53:13;;;;;;;10.93;6.73;;;-0.50;58.20;;;;;;5072555;28;20282;-83
2022/03/12 03:55:41;;;;;;;10.50;6.20;;;-0.60;58.00;;;;;;5072862;28;20646;-82
2022/03/12 03:58:08;;;;;;;12.53;6.60;;;-0.50;58.20;;;;;;5068625;28;20237;-82
2022/03/12 04:00:35;;;;;;;9.60;6.13;;;-0.50;58.20;;;;;;5073921;28;20233;-82
2022/03/12 04:03:04;;;;;;;9.00;6.30;;;-0.50;58.20;;;;;;5066708;28;20231;-81
2022/03/12 04:05:33;;;;;;;10.83;6.53;;;-0.60;58.10;;;;;;5049664;28;20241;-84
2022/03/12 04:08:00;;;;;;;10.23;5.93;;;-0.60;58.20;;;;;;5048984;28;20236;-82
2022/03/12 04:10:27;;;;;;;11.53;6.80;;;-0.60;58.30;;;;;;5053881;28;20235;-83
2022/03/12 04:12:54;;;;;;;11.97;6.23;;;-0.60;58.20;;;;;;5052898;28;20220;-84
2022/03/12 04:15:21;;;;;;;9.33;6.37;;;-0.60;58.50;;;;;;5063496;28;20225;-82
2022/03/12 04:17:50;;;;;;;9.63;5.97;;;-0.60;58.40;;;;;;5068262;28;20246;-83
2022/03/12 04:20:20;;;;;;;10.87;6.20;;;-0.60;58.40;;;;;;5067250;28;20265;-83
2022/03/12 04:22:48;;;;;;;9.93;5.93;;;-0.60;58.40;;;;;;5067673;28;20852;-83
2022/03/12 04:25:15;;;;;;;9.13;5.67;;;-0.60;58.20;;;;;;5067274;28;20267;-84
2022/03/12 04:27:44;;;;;;;10.07;6.23;;;-0.70;58.10;;;;;;5064944;28;20560;-84
2022/03/12 04:30:12;;;;;;;10.90;6.60;;;-0.70;58.30;;;;;;5070658;28;20233;-83
2022/03/12 04:32:39;;;;;;;10.87;6.13;;;-0.70;58.50;;;;;;5075037;28;20232;-83
2022/03/12 04:35:07;;;;;;;10.23;6.47;;;-0.70;58.40;;;;;;5070902;28;20228;-83
2022/03/12 04:37:36;;;;;;;11.93;6.90;;;-0.70;58.70;;;;;;5072821;28;20235;-83
2022/03/12 04:40:03;;;;;;;11.23;6.67;;;-0.80;58.80;;;;;;5072521;28;20250;-81
2022/03/12 04:42:30;;;;;;;10.07;6.20;;;-0.80;58.70;;;;;;5067003;28;20272;-81
2022/03/12 04:44:57;;;;;;;11.60;6.77;;;-0.90;58.50;;;;;;5067085;28;20220;-81
2022/03/12 04:47:25;;;;;;;11.53;6.50;;;-0.80;58.60;;;;;;5071251;28;20219;-81
2022/03/12 04:49:52;;;;;;;11.07;5.90;;;-0.90;58.60;;;;;;5066774;28;20628;-83
2022/03/12 04:52:20;;;;;;;11.93;6.97;;;-0.80;58.50;;;;;;5071069;28;20280;-84
2022/03/12 04:54:48;;;;;;;11.53;6.20;;;-0.80;58.80;;;;;;5066040;28;20276;-84
2022/03/12 04:57:15;;;;;;;9.63;6.00;;;-0.90;58.60;;;;;;5081694;28;20847;-84
2022/03/12 04:59:42;;;;;;;10.07;6.17;;;-0.90;58.60;;;;;;5068988;28;20809;-84
2022/03/12 05:02:12;;;;;;;12.00;6.43;;;-0.90;58.80;;;;;;5064271;28;20524;-84
2022/03/12 05:04:39;;;;;;;8.57;6.00;;;-0.90;58.70;;;;;;5060150;28;20232;-84
2022/03/12 05:07:07;;;;;;;12.83;6.73;;;-1.00;58.60;;;;;;5065878;28;20242;-83
2022/03/12 05:09:34;;;;;;;11.23;6.37;;;-0.90;58.90;;;;;;5066078;28;20232;-82
2022/03/12 05:12:05;;;;;;;10.77;6.67;;;-1.00;59.40;;;;;;5069340;28;20227;-81
2022/03/12 05:14:33;;;;;;;14.37;6.17;;;-1.00;59.10;;;;;;5063734;28;20236;-81
2022/03/12 05:17:00;;;;;;;9.77;6.00;;;-1.00;59.20;;;;;;5084552;28;20225;-81
2022/03/12 05:19:28;;;;;;;8.90;5.97;;;-1.10;59.00;;;;;;5066593;28;20227;-82
2022/03/12 05:21:55;;;;;;;9.50;5.57;;;-1.20;59.00;;;;;;5069685;28;20224;-82
2022/03/12 05:24:23;;;;;;;11.33;6.40;;;-1.10;59.30;;;;;;5060379;28;20233;-83
2022/03/12 05:26:49;;;;;;;11.40;6.33;;;-1.20;59.20;;;;;;5077689;28;20599;-79
2022/03/12 05:29:21;;;;;;;13.17;6.10;;;-1.20;59.30;;;;;;5064120;28;20303;-84
2022/03/12 05:31:49;;;;;;;11.37;6.67;;;-1.20;59.30;;;;;;5061752;28;20301;-84
2022/03/12 05:34:15;;;;;;;11.93;6.50;;;-1.30;59.50;;;;;;5059884;28;20293;-85
2022/03/12 05:36:42;;;;;;;10.13;6.40;;;-1.30;59.40;;;;;;5061953;28;20301;-85
2022/03/12 05:39:09;;;;;;;11.57;6.57;;;-1.30;59.60;;;;;;5062413;28;20235;-84
2022/03/12 05:41:38;;;;;;;9.60;6.10;;;-1.30;59.60;;;;;;5064165;28;20234;-84
2022/03/12 05:44:05;;;;;;;9.43;6.27;;;-1.30;59.40;;;;;;5063792;28;20579;-84
2022/03/12 05:46:35;;;;;;;12.03;6.33;;;-1.30;60.10;;;;;;5063814;28;20228;-85
2022/03/12 05:49:03;;;;;;;11.73;6.20;;;-1.30;59.60;;;;;;5062793;28;20245;-86
2022/03/12 05:51:31;;;;;;;10.60;6.27;;;-1.30;59.50;;;;;;5055224;28;20267;-86
2022/03/12 05:53:59;;;;;;;11.43;6.17;;;-1.30;59.60;;;;;;5058714;28;20693;-86
2022/03/12 05:56:25;;;;;;;9.27;5.70;;;-1.30;59.60;;;;;;5066374;28;20253;-84
2022/03/12 05:58:53;;;;;;;10.97;6.17;;;-1.30;59.60;;;;;;5063766;28;20258;-83
2022/03/12 06:01:19;;;;;;;12.53;6.20;;;-1.30;59.50;;;;;;5063507;28;20238;-83
2022/03/12 06:03:47;;;;;;;9.60;5.60;;;-1.30;59.60;;;;;;5063986;28;20248;-85
2022/03/12 06:06:14;;;;;;;10.03;6.00;;;-1.20;59.70;;;;;;5065912;28;20218;-85
2022/03/12 06:08:41;;;;;;;11.37;6.50;;;-1.30;59.70;;;;;;5066131;28;20290;-87
2022/03/12 06:11:10;;;;;;;9.87;6.63;;;-1.20;59.50;;;;;;5066908;28;20285;-85
2022/03/12 06:13:37;;;;;;;11.63;6.47;;;-1.20;59.50;;;;;;5065523;28;20239;-85
2022/03/12 06:16:06;;;;;;;11.30;6.37;;;-1.10;59.40;;;;;;5067503;28;20218;-85
2022/03/12 06:18:35;;;;;;;10.03;6.17;;;-1.00;59.60;;;;;;5067832;28;20234;-84
2022/03/12 06:21:05;;;;;;;10.33;6.13;;;-0.90;59.50;;;;;;5068425;28;20336;-85
2022/03/12 06:23:32;;;;;;;13.30;6.73;;;-0.80;59.20;;;;;;5056322;28;20234;-86
2022/03/12 06:26:01;;;;;;;11.40;6.17;;;-0.80;59.00;;;;;;5040834;28;20215;-85
2022/03/12 06:28:29;;;;;;;11.13;7.00;;;-0.70;59.00;;;;;;5059295;28;20233;-80
2022/03/12 06:30:56;;;;;;;8.50;5.97;;;-0.70;59.00;;;;;;5055906;28;20229;-80
2022/03/12 06:33:24;;;;;;;11.40;6.10;;;-0.60;59.00;;;;;;5043531;28;20229;-80
2022/03/12 06:35:51;;;;;;;13.17;6.30;;;-0.60;58.90;;;;;;5053944;28;20316;-80
2022/03/12 06:38:22;;;;;;;10.00;6.70;;;-0.50;58.70;;;;;;5046775;28;20252;-80
2022/03/12 06:40:49;;;;;;;10.10;5.93;;;-0.30;58.40;;;;;;5061715;28;20229;-80
2022/03/12 06:43:19;;;;;;;9.07;6.40;;;-0.30;58.40;;;;;;5071379;28;20310;-80
2022/03/12 06:45:46;;;;;;;10.90;6.10;;;-0.20;58.30;;;;;;5071809;28;20300;-80
2022/03/12 06:48:13;;;;;;;10.23;6.17;;;-0.10;58.10;;;;;;5070834;28;20287;-80
2022/03/12 06:50:40;;;;;;;10.47;6.60;;;-0.10;58.00;;;;;;5073362;28;20684;-80
2022/03/12 06:53:07;;;;;;;9.07;5.90;;;-0.10;57.60;;;;;;5075579;28;20725;-80
2022/03/12 06:55:35;;;;;;;8.73;5.70;;;-0.10;57.50;;;;;;5070244;28;20704;-80
2022/03/12 06:58:02;;;;;;;9.83;5.97;;;0.00;57.60;;;;;;5071372;28;20232;-80
2022/03/12 07:00:31;;;;;;;9.27;5.83;;;0.00;57.50;;;;;;5074321;28;20224;-80
2022/03/12 07:02:58;;;;;;;10.37;6.23;;;0.10;57.10;;;;;;5066901;28;20221;-81
2022/03/12 07:05:25;;;;;;;9.83;5.70;;;0.20;57.10;;;;;;5072871;28;20249;-79
2022/03/12 07:07:52;;;;;;;9.63;5.73;;;0.20;56.90;;;;;;5067637;28;20257;-81
2022/03/12 07:10:20;;;;;;;9.97;5.43;;;0.30;56.70;;;;;;5070116;28;20241;-80
2022/03/12 07:12:49;;;;;;;11.03;6.03;;;0.30;56.30;;;;;;5072867;28;20234;-80
2022/03/12 07:15:17;;;;;;;9.63;5.87;;;0.40;56.60;;;;;;5067474;28;20226;-80
2022/03/12 07:17:44;;;;;;;9.27;5.77;;;0.50;56.40;;;;;;5073735;28;20231;-81
2022/03/12 07:20:13;;;;;;;10.10;5.73;;;0.60;56.20;;;;;;5068775;28;20228;-80
2022/03/12 07:22:40;;;;;;;10.13;5.97;;;0.60;55.20;;;;;;5069153;28;20234;-79
2022/03/12 07:25:07;;;;;;;9.33;5.53;;;0.80;55.90;;;;;;5070135;28;20229;-81
2022/03/12 07:27:34;;;;;;;8.57;5.60;;;0.90;55.40;;;;;;5069163;28;20240;-81
2022/03/12 07:30:03;;;;;;;8.13;5.67;;;1.10;54.90;;;;;;5065617;28;20242;-81
2022/03/12 07:32:30;;;;;;;8.53;5.53;;;1.20;54.20;;;;;;5066103;28;20649;-79
2022/03/12 07:34:57;;;;;;;10.63;5.37;;;1.40;54.90;;;;;;5070359;28;20562;-79
2022/03/12 07:37:23;;;;;;;7.90;5.47;;;1.50;54.40;;;;;;5069643;28;20799;-79
2022/03/12 07:39:50;;;;;;;9.33;5.50;;;1.70;54.90;;;;;;5071404;28;20227;-79
2022/03/12 07:42:17;;;;;;;7.30;5.20;;;1.90;54.20;;;;;;5070182;28;20220;-78
2022/03/12 07:44:44;;;;;;;8.00;5.10;;;2.20;53.80;;;;;;5063270;28;20743;-79
2022/03/12 07:47:12;;;;;;;7.43;4.83;;;2.40;52.60;;;;;;5065008;28;20228;-79
2022/03/12 07:49:39;;;;;;;8.03;4.50;;;2.70;51.80;;;;;;5065231;28;20228;-79
2022/03/12 07:52:07;;;;;;;8.03;5.07;;;3.00;50.90;;;;;;5065980;28;20305;-79
2022/03/12 07:54:34;;;;;;;8.33;4.93;;;3.20;50.60;;;;;;5062174;28;20246;-79
2022/03/12 07:57:01;;;;;;;8.83;5.13;;;3.50;50.40;;;;;;5070301;28;20281;-79
2022/03/12 07:59:29;;;;;;;10.70;5.20;;;3.70;49.00;;;;;;5066938;28;20240;-79
2022/03/12 08:01:56;;;;;;;9.13;5.37;;;3.90;49.30;;;;;;5068401;28;20223;-79
2022/03/12 08:04:24;;;;;;;11.50;5.13;;;4.10;49.40;;;;;;5066982;28;20251;-79
2022/03/12 08:06:50;;;;;;;10.13;4.63;;;4.20;49.20;;;;;;5060434;28;20225;-79
2022/03/12 08:09:17;;;;;;;7.63;4.97;;;4.30;48.70;;;;;;5068629;28;20286;-79
2022/03/12 08:11:44;;;;;;;6.40;4.33;;;4.40;47.90;;;;;;5070352;28;20233;-79
2022/03/12 08:14:15;;;;;;;7.53;4.80;;;4.50;47.10;;;;;;5068745;28;20224;-80
2022/03/12 08:16:44;;;;;;;8.00;4.97;;;4.50;46.80;;;;;;5068573;28;20260;-79
2022/03/12 08:19:10;;;;;;;8.90;5.50;;;4.60;47.70;;;;;;5063930;28;20252;-79
2022/03/12 08:21:39;;;;;;;9.57;4.97;;;4.60;48.10;;;;;;5067859;28;20237;-79
2022/03/12 08:24:07;;;;;;;7.07;4.50;;;4.60;48.10;;;;;;5068606;28;20259;-79
2022/03/12 08:26:34;;;;;;;10.10;5.10;;;4.80;48.30;;;;;;5070129;28;20282;-79
2022/03/12 08:29:01;;;;;;;7.60;4.83;;;4.90;47.40;;;;;;5067403;28;20587;-79
2022/03/12 08:31:28;;;;;;;7.43;5.17;;;5.00;47.70;;;;;;5067784;28;20228;-79
2022/03/12 08:33:55;;;;;;;7.40;4.93;;;5.30;48.50;;;;;;5069524;28;20244;-79
2022/03/12 08:36:21;;;;;;;7.27;4.60;;;5.50;47.00;;;;;;5070186;28;20332;-79
2022/03/12 08:38:51;;;;;;;7.60;5.00;;;5.60;45.60;;;;;;5069415;28;20279;-79
2022/03/12 08:41:21;;;;;;;6.20;4.67;;;5.80;45.50;;;;;;5068744;28;20228;-79
2022/03/12 08:43:49;;;;;;;5.87;4.53;;;5.90;45.10;;;;;;5069864;28;20249;-80
2022/03/12 08:46:16;;;;;;;7.40;4.80;;;6.10;44.80;;;;;;5069408;28;20224;-79
2022/03/12 08:48:43;;;;;;;6.93;4.10;;;6.30;44.90;;;;;;5069262;28;20221;-79
2022/03/12 08:51:09;;;;;;;7.50;5.13;;;6.50;44.60;;;;;;5069010;28;20343;-79
2022/03/12 08:53:37;;;;;;;6.27;4.70;;;6.80;44.30;;;;;;5067134;28;20220;-79
2022/03/12 08:56:06;;;;;;;8.40;5.30;;;7.20;46.00;;;;;;5070457;28;20247;-79
2022/03/12 08:58:33;;;;;;;7.37;4.83;;;7.50;42.90;;;;;;5066160;28;20316;-79
2022/03/12 09:01:01;;;;;;;7.30;5.50;;;7.80;42.80;;;;;;5070275;28;20275;-80
2022/03/12 09:03:30;;;;;;;6.03;4.70;;;8.20;43.70;;;;;;5075960;28;20229;-80
2022/03/12 09:05:57;;;;;;;8.23;5.67;;;8.50;43.40;;;;;;5070827;28;20257;-80
2022/03/12 09:08:24;;;;;;;7.20;4.67;;;8.90;43.20;;;;;;5066014;28;20301;-81
2022/03/12 09:10:51;;;;;;;6.53;4.90;;;9.10;40.40;;;;;;5071493;28;20227;-79
2022/03/12 09:13:20;;;;;;;9.10;6.20;;;9.30;40.60;;;;;;5073963;28;20723;-80
2022/03/12 09:15:47;;;;;;;7.53;5.10;;;9.50;41.20;;;;;;5067774;28;20226;-79
2022/03/12 09:18:17;;;;;;;6.83;4.67;;;9.70;40.80;;;;;;5071281;28;20291;-79
2022/03/12 09:20:45;;;;;;;7.00;5.07;;;9.80;40.70;;;;;;5069706;28;21660;-79
2022/03/12 09:23:13;;;;;;;7.03;4.83;;;9.90;39.80;;;;;;5068546;28;20302;-79
2022/03/12 09:25:42;;;;;;;7.57;4.83;;;9.80;40.50;;;;;;5070303;28;20306;-79
2022/03/12 09:28:09;;;;;;;9.87;4.97;;;9.80;40.10;;;;;;5069837;28;20234;-79
2022/03/12 09:30:37;;;;;;;7.23;4.80;;;9.60;39.80;;;;;;5074245;28;20245;-79
2022/03/12 09:33:05;;;;;;;8.30;5.03;;;9.30;39.80;;;;;;5069486;28;20603;-79
2022/03/12 09:35:32;;;;;;;9.83;6.43;;;9.10;40.00;;;;;;5065662;28;20244;-78
2022/03/12 09:38:00;;;;;;;11.97;7.43;;;8.80;40.70;;;;;;5070911;28;20221;-78
2022/03/12 09:40:27;;;;;;;8.03;5.40;;;8.50;41.00;;;;;;5067768;28;20237;-79
2022/03/12 09:42:54;;;;;;;7.33;4.73;;;8.20;42.10;;;;;;5069354;28;20350;-79
2022/03/12 09:45:22;;;;;;;7.27;4.87;;;8.00;41.70;;;;;;5067012;28;20418;-79
2022/03/12 09:47:50;;;;;;;6.33;4.70;;;7.80;41.80;;;;;;5066652;28;20686;-79
2022/03/12 09:50:17;;;;;;;7.23;4.63;;;7.60;41.90;;;;;;5070721;28;20244;-79
2022/03/12 09:52:44;;;;;;;9.50;4.60;;;7.50;42.50;;;;;;5070675;28;20226;-79
2022/03/12 09:55:11;;;;;;;6.60;4.30;;;7.50;42.00;;;;;;5069452;28;20243;-79
2022/03/12 09:57:38;;;;;;;6.60;4.80;;;7.60;43.40;;;;;;5071075;28;20234;-79
2022/03/12 10:00:08;;;;;;;6.47;4.70;;;7.80;43.20;;;;;;5071334;28;20234;-79
2022/03/12 10:02:38;;;;;;;10.77;4.90;;;8.00;42.60;;;;;;5069498;28;20294;-79
2022/03/12 10:05:11;;;;;;;7.43;4.43;;;8.40;41.90;;;;;;5071821;28;20230;-79
2022/03/12 10:07:38;;;;;;;5.80;4.70;;;8.70;42.90;;;;;;5070376;28;20241;-79
2022/03/12 10:10:06;;;;;;;8.43;4.73;;;9.00;43.20;;;;;;5068578;28;20248;-78
2022/03/12 10:12:35;;;;;;;7.03;5.10;;;9.40;44.00;;;;;;5068277;28;20239;-78
2022/03/12 10:15:01;;;;;;;6.47;4.67;;;9.90;43.10;;;;;;5069778;28;20872;-79
2022/03/12 10:17:29;;;;;;;9.07;5.20;;;10.30;43.20;;;;;;5068889;28;20237;-79
2022/03/12 10:19:55;;;;;;;7.13;4.70;;;10.80;42.00;;;;;;5071325;28;20367;-79
2022/03/12 10:22:23;;;;;;;7.57;5.00;;;11.00;40.40;;;;;;5067880;28;20223;-79
2022/03/12 10:24:51;;;;;;;7.03;5.10;;;11.30;40.00;;;;;;5069224;28;20629;-79
2022/03/12 10:27:18;;;;;;;5.77;4.87;;;11.40;38.60;;;;;;5073129;28;20231;-79
2022/03/12 10:29:45;;;;;;;8.27;4.97;;;11.50;39.00;;;;;;5084558;28;20283;-79
2022/03/12 10:32:23;;;;;;;6.63;4.73;;;11.60;38.90;;;;;;5069131;28;20285;-79
2022/03/12 10:34:53;;;;;;;6.97;5.00;;;11.80;40.30;;;;;;5069700;28;20307;-79
2022/03/12 10:37:21;;;;;;;6.63;4.93;;;11.90;40.90;;;;;;5069214;28;20234;-79
2022/03/12 10:40:03;;;;;;;5.83;4.60;;;12.20;41.40;;;;;;5067726;28;20776;-79
2022/03/12 10:42:30;;;;;;;7.07;5.43;;;12.50;41.20;;;;;;5069103;28;20250;-79
2022/03/12 10:45:06;;;;;;;6.50;4.87;;;12.70;38.20;;;;;;5070676;28;20252;-79
2022/03/12 10:47:38;;;;;;;7.13;5.10;;;13.00;40.20;;;;;;5071049;28;20248;-79
2022/03/12 10:50:08;;;;;;;6.83;4.80;;;13.20;38.70;;;;;;5068915;28;20225;-79
2022/03/12 10:52:36;;;;;;;7.17;4.90;;;13.30;37.40;;;;;;5067525;28;20237;-79
2022/03/12 10:55:16;;;;;;;6.53;5.20;;;13.20;36.60;;;;;;5071356;28;20235;-79
2022/03/12 10:57:57;;;;;;;8.23;4.73;;;13.20;37.10;;;;;;5071223;28;20233;-79
2022/03/12 11:00:24;;;;;;;6.10;5.00;;;13.20;39.30;;;;;;5075737;28;20263;-79
2022/03/12 11:02:54;;;;;;;8.37;5.23;;;13.20;37.50;;;;;;5064603;28;20686;-79
2022/03/12 11:05:26;;;;;;;8.40;5.23;;;13.20;38.20;;;;;;5069848;28;20711;-79
2022/03/12 11:07:53;;;;;;;7.30;5.00;;;13.30;38.40;;;;;;5065133;28;20233;-79
2022/03/12 11:10:33;;;;;;;5.90;4.67;;;13.30;38.60;;;;;;5067548;28;20595;-79
2022/03/12 11:13:01;;;;;;;6.17;4.97;;;13.40;38.00;;;;;;5071779;28;20313;-79
2022/03/12 11:15:32;;;;;;;7.13;4.90;;;13.50;38.20;;;;;;5064961;28;20243;-79
2022/03/12 11:18:04;;;;;;;6.97;5.40;;;13.70;39.30;;;;;;5068083;28;20226;-79
2022/03/12 11:20:35;;;;;;;6.57;5.00;;;13.80;38.10;;;;;;5069180;28;20239;-79
2022/03/12 11:23:07;;;;;;;7.53;5.07;;;14.00;38.90;;;;;;5070941;28;20234;-79
2022/03/12 11:25:37;;;;;;;7.13;4.87;;;14.30;38.90;;;;;;5067598;28;20783;-79
2022/03/12 11:28:17;;;;;;;7.20;4.70;;;14.40;38.80;;;;;;5064123;28;20237;-79
2022/03/12 11:30:44;;;;;;;7.10;5.43;;;14.60;37.50;;;;;;5073014;28;20224;-79
2022/03/12 11:33:11;;;;;;;6.80;5.17;;;14.60;38.00;;;;;;5068235;28;20226;-79
2022/03/12 11:35:39;;;;;;;6.57;5.07;;;14.60;36.40;;;;;;5073200;28;20237;-79
2022/03/12 11:38:15;;;;;;;5.80;4.77;;;14.50;36.00;;;;;;5069002;28;20246;-79
2022/03/12 11:40:46;;;;;;;5.87;4.90;;;14.30;36.40;;;;;;5067229;28;20248;-79
2022/03/12 11:43:24;;;;;;;6.13;4.90;;;14.20;36.10;;;;;;5068268;28;20768;-79
2022/03/12 11:45:53;;;;;;;6.83;4.90;;;14.10;37.00;;;;;;5075818;28;20301;-79
2022/03/12 11:48:21;;;;;;;5.83;5.00;;;14.10;37.60;;;;;;5073197;28;20211;-79
2022/03/12 11:50:48;;;;;;;6.33;4.87;;;14.10;38.50;;;;;;5067385;28;20781;-79
2022/03/12 11:53:18;;;;;;;6.37;5.10;;;14.20;37.40;;;;;;5069082;28;20226;-79
2022/03/12 11:55:50;;;;;;;6.20;4.77;;;14.40;37.90;;;;;;5071998;28;20252;-79
2022/03/12 11:58:17;;;;;;;7.07;5.10;;;14.50;37.20;;;;;;5068294;28;20226;-79
2022/03/12 12:00:47;;;;;;;6.87;4.93;;;14.60;37.80;;;;;;5066567;28;20238;-79
2022/03/12 12:03:15;;;;;;;5.97;4.70;;;14.70;37.00;;;;;;5069615;28;20257;-79
2022/03/12 12:05:43;;;;;;;5.97;5.00;;;14.80;37.70;;;;;;5073483;28;20728;-78
2022/03/12 12:08:12;;;;;;;7.57;5.13;;;14.90;37.60;;;;;;5074143;28;20797;-79
2022/03/12 12:10:41;;;;;;;8.73;5.27;;;15.00;37.10;;;;;;5067315;28;20250;-79
2022/03/12 12:13:12;;;;;;;8.83;5.33;;;15.10;37.00;;;;;;5059666;28;20234;-80
2022/03/12 12:15:45;;;;;;;9.50;5.00;;;15.10;36.50;;;;;;5069939;28;20233;-79
2022/03/12 12:18:13;;;;;;;5.70;4.90;;;15.20;36.90;;;;;;5067432;28;20722;-79
2022/03/12 12:20:42;;;;;;;6.00;5.00;;;15.20;37.80;;;;;;5066673;28;20227;-79
2022/03/12 12:23:16;;;;;;;7.27;5.07;;;15.30;36.60;;;;;;5067783;28;20941;-79
2022/03/12 12:25:43;;;;;;;6.30;5.13;;;15.40;36.90;;;;;;5069477;28;20238;-80
2022/03/12 12:28:17;;;;;;;9.10;7.00;;;15.40;37.00;;;;;;5072052;28;20337;-79
2022/03/12 12:30:45;;;;;;;8.53;5.37;;;15.40;37.10;;;;;;5067567;28;20246;-79
2022/03/12 12:33:18;;;;;;;5.70;4.90;;;15.40;35.10;;;;;;5065778;28;20235;-79
2022/03/12 12:35:46;;;;;;;6.00;5.00;;;15.40;36.90;;;;;;5067478;28;20238;-79
2022/03/12 12:38:14;;;;;;;7.73;5.40;;;15.20;35.20;;;;;;5063768;28;20249;-79
2022/03/12 12:40:45;;;;;;;6.47;5.00;;;15.20;35.30;;;;;;5068754;28;20237;-79
2022/03/12 12:43:18;;;;;;;5.70;4.80;;;15.00;35.50;;;;;;5068149;28;20303;-79
2022/03/12 12:46:08;;;;;;;5.70;4.63;;;14.80;35.30;;;;;;5067500;28;20262;-79
2022/03/12 12:48:40;;;;;;;6.27;5.03;;;14.60;34.30;;;;;;5066160;28;20931;-79
2022/03/12 12:51:10;;;;;;;7.43;5.47;;;14.50;35.40;;;;;;5069255;28;20222;-78
2022/03/12 12:53:39;;;;;;;6.33;5.00;;;14.40;36.80;;;;;;5070751;28;20231;-79